Time;durP1;ratioP1;P1;durP2;ratioP2;P2;SDS_P1;SDS_P2;PMS_P1;PMS_P2;Temp;Humidity;BMP_temperature;BMP_pressure;BME280_temperature;BME280_humidity;BME280_pressure;Samples;Min_cycle;Max_cycle;Signal;HPM_P1;HPM_P2
2022/01/17 00:01:46;;;;;;;17.50;9.00;;;0.60;99.90;;;;;;5077514;28;20070;-61
2022/01/17 00:04:13;;;;;;;16.85;9.57;;;0.60;99.90;;;;;;5077310;28;20502;-60
2022/01/17 00:06:41;;;;;;;;;;;0.60;99.90;;;;;;5076162;28;20121;-60
2022/01/17 00:09:07;;;;;;;14.32;7.30;;;0.60;99.90;;;;;;5076323;28;19927;-60
2022/01/17 00:11:35;;;;;;;;;;;0.60;99.90;;;;;;5077759;28;20051;-60
2022/01/17 00:14:05;;;;;;;16.58;8.57;;;0.60;99.90;;;;;;5076514;28;19924;-60
2022/01/17 00:16:41;;;;;;;17.67;9.00;;;0.60;99.90;;;;;;5077298;28;20036;-60
2022/01/17 00:21:37;;;;;;;13.95;7.97;;;0.60;99.90;;;;;;5076760;28;20501;-60
2022/01/17 00:24:04;;;;;;;13.73;8.30;;;0.60;99.90;;;;;;5076369;28;20070;-60
2022/01/17 00:26:31;;;;;;;13.25;7.00;;;0.60;99.90;;;;;;5076969;28;20541;-59
2022/01/17 00:28:58;;;;;;;;;;;0.60;99.90;;;;;;5077147;28;20464;-59
2022/01/17 00:31:24;;;;;;;11.00;6.22;;;0.70;99.90;;;;;;5076698;28;19924;-60
2022/01/17 00:33:51;;;;;;;;;;;0.70;99.90;;;;;;5076250;28;20048;-59
2022/01/17 00:36:18;;;;;;;12.13;7.25;;;0.70;99.90;;;;;;5076113;28;20405;-60
2022/01/17 00:38:45;;;;;;;;;;;0.70;99.90;;;;;;5075116;28;20337;-60
2022/01/17 00:41:11;;;;;;;15.63;7.65;;;0.70;99.90;;;;;;5076943;28;19930;-60
2022/01/17 00:43:42;;;;;;;10.70;6.43;;;0.70;99.90;;;;;;5076491;28;20036;-60
2022/01/17 00:46:09;;;;;;;11.13;5.95;;;0.70;99.90;;;;;;5075650;28;20545;-60
2022/01/17 00:48:36;;;;;;;10.45;5.43;;;0.70;99.90;;;;;;5074965;28;20059;-60
2022/01/17 00:51:03;;;;;;;;;;;0.70;99.90;;;;;;5076616;28;20055;-60
2022/01/17 00:53:30;;;;;;;8.75;5.65;;;0.80;99.90;;;;;;5076584;28;20441;-60
2022/01/17 00:55:57;;;;;;;12.30;7.20;;;0.80;99.90;;;;;;5076376;28;20280;-60
2022/01/17 00:58:23;;;;;;;;;;;0.80;99.90;;;;;;5076499;28;20498;-60
2022/01/17 01:00:50;;;;;;;10.77;6.15;;;0.80;99.90;;;;;;5076093;28;20389;-60
2022/01/17 01:03:17;;;;;;;12.63;6.28;;;0.80;99.90;;;;;;5076012;28;20268;-60
2022/01/17 01:05:44;;;;;;;11.75;6.28;;;0.80;99.90;;;;;;5077549;28;20113;-60
2022/01/17 01:08:11;;;;;;;;;;;0.80;99.90;;;;;;5078710;28;20097;-60
2022/01/17 01:10:38;;;;;;;9.32;6.18;;;0.80;99.90;;;;;;5079375;28;19928;-60
2022/01/17 01:13:05;;;;;;;10.15;5.65;;;0.80;99.90;;;;;;5080998;28;20044;-60
2022/01/17 01:18:37;;;;;;;9.98;6.15;;;0.90;99.90;;;;;;5048637;28;20534;-59
2022/01/17 01:29:13;;;;;;;10.68;6.20;;;1.00;99.90;;;;;;5079376;28;20302;-60
2022/01/17 01:31:48;;;;;;;;;;;1.00;99.90;;;;;;5079852;28;20055;-60
2022/01/17 01:34:16;;;;;;;11.82;6.43;;;1.00;99.90;;;;;;5079384;28;20405;-60
2022/01/17 01:36:46;;;;;;;11.55;5.78;;;1.00;99.90;;;;;;5078315;28;20125;-59
2022/01/17 01:39:20;;;;;;;10.20;6.35;;;1.00;99.90;;;;;;5079180;28;20109;-59
2022/01/17 01:41:47;;;;;;;16.65;5.68;;;1.00;99.90;;;;;;5079248;28;20040;-60
2022/01/17 01:44:16;;;;;;;;;;;1.00;99.90;;;;;;5080286;28;20044;-60
2022/01/17 01:46:44;;;;;;;12.55;6.45;;;1.00;99.90;;;;;;5078926;28;20536;-60
2022/01/17 01:49:13;;;;;;;13.15;6.63;;;1.00;99.90;;;;;;5078295;28;20048;-60
2022/01/17 01:51:41;;;;;;;11.98;5.85;;;1.10;99.90;;;;;;5078880;28;20121;-60
2022/01/17 01:54:08;;;;;;;10.52;6.63;;;1.10;99.90;;;;;;5078627;28;20051;-60
2022/01/17 01:56:41;;;;;;;9.15;5.35;;;1.10;99.90;;;;;;5078962;28;20287;-60
2022/01/17 01:59:07;;;;;;;35.53;10.90;;;1.10;99.90;;;;;;5077030;28;20040;-60
2022/01/17 02:01:34;;;;;;;10.05;6.57;;;1.10;99.90;;;;;;5068069;28;20663;-60
2022/01/17 02:04:03;;;;;;;12.95;7.38;;;1.10;99.90;;;;;;5078752;28;20043;-60
2022/01/17 02:06:32;;;;;;;11.55;5.85;;;1.10;99.90;;;;;;5079213;28;20051;-60
2022/01/17 02:09:01;;;;;;;12.52;6.90;;;1.20;99.90;;;;;;5076712;28;20486;-60
2022/01/17 02:11:28;;;;;;;11.38;5.80;;;1.10;99.90;;;;;;5078478;28;20109;-60
2022/01/17 02:13:55;;;;;;;12.35;6.70;;;1.20;99.90;;;;;;5078837;28;20554;-60
2022/01/17 02:16:22;;;;;;;;;;;1.20;99.90;;;;;;5078764;28;20109;-60
2022/01/17 02:18:50;;;;;;;15.27;8.50;;;1.20;99.90;;;;;;5077682;28;20015;-60
2022/01/17 02:21:30;;;;;;;14.30;9.05;;;1.20;99.90;;;;;;5078614;28;20108;-60
2022/01/17 02:23:58;;;;;;;12.95;8.43;;;1.20;99.90;;;;;;5078989;28;20040;-60
2022/01/17 02:26:25;;;;;;;13.40;7.15;;;1.20;99.90;;;;;;5078313;28;20051;-60
2022/01/17 02:28:55;;;;;;;10.88;6.68;;;1.20;99.90;;;;;;5078020;28;20487;-60
2022/01/17 02:31:23;;;;;;;15.65;9.45;;;1.20;99.90;;;;;;5077865;28;20109;-60
2022/01/17 02:33:51;;;;;;;17.23;9.57;;;1.20;99.90;;;;;;5078644;28;20043;-60
2022/01/17 02:36:18;;;;;;;16.58;8.80;;;1.20;99.90;;;;;;5076583;28;20188;-60
2022/01/17 02:38:44;;;;;;;12.48;8.20;;;1.20;99.90;;;;;;5077812;28;20043;-60
2022/01/17 02:41:11;;;;;;;;;;;1.10;99.90;;;;;;5079040;28;20040;-60
2022/01/17 02:43:39;;;;;;;12.05;7.65;;;1.10;99.90;;;;;;5077896;28;19920;-60
2022/01/17 02:48:35;;;;;;;15.18;8.82;;;1.10;99.90;;;;;;5077776;28;20082;-60
2022/01/17 02:51:03;;;;;;;13.73;7.65;;;1.20;99.90;;;;;;5077869;28;20415;-60
2022/01/17 02:53:31;;;;;;;17.52;9.80;;;1.10;99.90;;;;;;5078090;28;20549;-60
2022/01/17 02:56:05;;;;;;;22.20;11.02;;;1.10;99.90;;;;;;5078021;28;20123;-60
2022/01/17 02:58:34;;;;;;;19.70;9.85;;;1.10;99.90;;;;;;5078088;28;20040;-60
2022/01/17 03:01:13;;;;;;;16.30;10.35;;;1.10;99.90;;;;;;5077620;28;20147;-60
2022/01/17 03:03:42;;;;;;;13.82;9.18;;;1.10;99.90;;;;;;5077744;28;20051;-60
2022/01/17 03:06:10;;;;;;;16.60;9.70;;;1.10;99.90;;;;;;5077326;28;20044;-60
2022/01/17 03:08:38;;;;;;;16.02;8.75;;;1.10;99.90;;;;;;5077403;28;20075;-60
2022/01/17 03:11:06;;;;;;;14.05;8.27;;;1.10;99.90;;;;;;5075680;28;20093;-60
2022/01/17 03:13:37;;;;;;;14.05;8.38;;;1.10;99.90;;;;;;5077979;28;20172;-60
2022/01/17 03:16:10;;;;;;;16.35;8.90;;;1.10;99.90;;;;;;5077289;28;20383;-60
2022/01/17 03:18:41;;;;;;;16.55;8.82;;;1.10;99.90;;;;;;5077521;28;20044;-60
2022/01/17 03:21:09;;;;;;;19.50;9.00;;;1.10;99.90;;;;;;5056895;28;20558;-60
2022/01/17 03:23:37;;;;;;;18.75;10.30;;;1.10;99.90;;;;;;5057138;28;20582;-60
2022/01/17 03:26:05;;;;;;;16.60;10.15;;;1.10;99.90;;;;;;5057023;28;20056;-60
2022/01/17 03:28:32;;;;;;;20.73;11.55;;;1.10;99.90;;;;;;5055950;28;20577;-60
2022/01/17 03:31:00;;;;;;;17.17;9.55;;;1.10;99.90;;;;;;5054974;28;20049;-60
2022/01/17 03:33:27;;;;;;;22.90;11.02;;;1.10;99.90;;;;;;5055811;28;20074;-60
2022/01/17 03:35:54;;;;;;;;;;;1.10;99.90;;;;;;5066414;28;20047;-60
2022/01/17 03:38:23;;;;;;;19.02;10.52;;;1.10;99.90;;;;;;5077025;28;20440;-60
2022/01/17 03:40:51;;;;;;;24.13;10.25;;;1.10;99.90;;;;;;5077189;28;20369;-60
2022/01/17 03:43:20;;;;;;;18.55;10.63;;;1.00;99.90;;;;;;5076086;28;20071;-60
2022/01/17 03:45:47;;;;;;;17.70;10.45;;;1.10;99.90;;;;;;5077095;28;20048;-60
2022/01/17 03:48:15;;;;;;;20.35;10.77;;;1.10;99.90;;;;;;5077248;28;20040;-60
2022/01/17 03:50:42;;;;;;;16.83;10.85;;;1.00;99.90;;;;;;5076444;28;20454;-60
2022/01/17 03:53:09;;;;;;;16.73;9.98;;;1.10;99.90;;;;;;5077089;28;20340;-60
2022/01/17 03:55:37;;;;;;;25.75;13.50;;;1.00;99.90;;;;;;5076248;28;20119;-60
2022/01/17 03:58:05;;;;;;;21.33;12.02;;;1.00;99.90;;;;;;5076648;28;20071;-60
2022/01/17 04:00:40;;;;;;;17.23;10.00;;;1.00;99.90;;;;;;5076083;28;20482;-60
2022/01/17 04:03:07;;;;;;;16.70;9.93;;;1.00;99.90;;;;;;5076893;28;20086;-60
2022/01/17 04:05:35;;;;;;;19.15;10.95;;;1.10;99.90;;;;;;5076469;28;20699;-60
2022/01/17 04:08:02;;;;;;;19.25;10.57;;;1.00;99.90;;;;;;5076831;28;20571;-60
2022/01/17 04:10:28;;;;;;;14.20;8.75;;;1.00;99.90;;;;;;5084296;28;20689;-60
2022/01/17 04:13:01;;;;;;;16.55;9.57;;;1.10;99.90;;;;;;5095954;28;20051;-60
2022/01/17 04:15:29;;;;;;;18.58;9.65;;;1.10;99.90;;;;;;5097103;28;20112;-60
2022/01/17 04:17:56;;;;;;;16.10;10.13;;;1.00;99.90;;;;;;5086573;28;20097;-60
2022/01/17 04:20:28;;;;;;;16.42;10.05;;;1.10;99.90;;;;;;5076476;28;20048;-60
2022/01/17 04:22:58;;;;;;;19.08;9.95;;;1.10;99.90;;;;;;5076607;28;20044;-60
2022/01/17 04:25:29;;;;;;;16.30;9.35;;;1.10;99.90;;;;;;5077092;28;20040;-60
2022/01/17 04:27:58;;;;;;;20.35;10.48;;;1.10;99.90;;;;;;5076824;28;20105;-60
2022/01/17 04:30:25;;;;;;;16.83;10.18;;;1.10;99.90;;;;;;5076768;28;20616;-60
2022/01/17 04:32:52;;;;;;;16.20;9.10;;;1.10;99.90;;;;;;5076929;28;20051;-60
2022/01/17 04:35:20;;;;;;;;;;;1.10;99.90;;;;;;5074979;28;20521;-60
2022/01/17 04:38:03;;;;;;;15.85;9.25;;;1.10;99.90;;;;;;5076169;28;19924;-60
2022/01/17 04:40:35;;;;;;;15.98;9.82;;;1.10;99.90;;;;;;5077286;28;20329;-60
2022/01/17 04:43:16;;;;;;;15.85;9.95;;;1.10;99.90;;;;;;5080956;28;20902;-60
2022/01/17 04:45:43;;;;;;;19.17;10.57;;;1.10;99.90;;;;;;5080310;28;20425;-60
2022/01/17 04:48:11;;;;;;;16.00;10.02;;;1.10;99.90;;;;;;5080507;28;20097;-60
2022/01/17 04:50:37;;;;;;;17.67;9.82;;;1.10;99.90;;;;;;5079633;28;20040;-59
2022/01/17 04:53:06;;;;;;;23.00;13.10;;;1.10;99.90;;;;;;5080850;28;20072;-59
2022/01/17 04:55:33;;;;;;;21.00;12.65;;;1.10;99.90;;;;;;5080504;28;20097;-59
2022/01/17 04:58:00;;;;;;;21.33;11.23;;;1.10;99.90;;;;;;5079872;28;20075;-60
2022/01/17 05:00:27;;;;;;;;;;;1.10;99.90;;;;;;5080738;28;20036;-60
2022/01/17 05:02:54;;;;;;;21.90;12.85;;;1.10;99.90;;;;;;5079990;28;19923;-60
2022/01/17 05:05:22;;;;;;;23.55;12.85;;;1.10;99.90;;;;;;5080418;28;20055;-60
2022/01/17 05:07:49;;;;;;;20.35;12.48;;;1.10;99.90;;;;;;5079405;28;20055;-59
2022/01/17 05:10:17;;;;;;;27.55;14.85;;;1.10;99.90;;;;;;5079557;28;20060;-60
2022/01/17 05:12:45;;;;;;;42.65;22.95;;;1.10;99.90;;;;;;5077703;28;20102;-60
2022/01/17 05:15:36;;;;;;;33.08;18.42;;;1.10;99.90;;;;;;5080157;28;20044;-60
2022/01/17 05:20:33;;;;;;;29.23;15.40;;;1.10;99.90;;;;;;5078924;28;20658;-60
2022/01/17 05:23:00;;;;;;;23.00;14.65;;;1.10;99.90;;;;;;5080302;28;20071;-60
2022/01/17 05:25:27;;;;;;;;;;;1.10;99.90;;;;;;5080400;28;20048;-60
2022/01/17 05:27:54;;;;;;;24.25;12.55;;;1.10;99.90;;;;;;5079730;28;19924;-59
2022/01/17 05:30:22;;;;;;;19.65;11.80;;;1.10;99.90;;;;;;5078849;28;20055;-60
2022/01/17 05:32:50;;;;;;;20.67;11.15;;;1.10;99.90;;;;;;5079398;28;20068;-60
2022/01/17 05:35:17;;;;;;;17.23;11.23;;;1.10;99.90;;;;;;5079000;28;20044;-60
2022/01/17 05:37:45;;;;;;;25.65;11.93;;;1.00;99.90;;;;;;5078728;28;20381;-60
2022/01/17 05:40:14;;;;;;;24.40;12.10;;;1.10;99.90;;;;;;5079692;28;20128;-60
2022/01/17 05:42:41;;;;;;;21.90;11.93;;;1.00;99.90;;;;;;5079131;28;20077;-60
2022/01/17 05:45:09;;;;;;;18.00;10.40;;;1.00;99.90;;;;;;5079073;28;20490;-60
2022/01/17 05:47:36;;;;;;;20.65;11.48;;;1.00;99.90;;;;;;5079122;28;20059;-60
2022/01/17 05:50:05;;;;;;;20.70;12.13;;;1.00;99.90;;;;;;5078597;28;20074;-60
2022/01/17 05:52:32;;;;;;;18.35;11.63;;;1.00;99.90;;;;;;5077876;28;20052;-60
2022/01/17 05:54:59;;;;;;;17.92;11.25;;;1.00;99.90;;;;;;5079430;28;20052;-60
2022/01/17 05:57:26;;;;;;;24.20;12.38;;;1.00;99.90;;;;;;5079210;28;20125;-60
2022/01/17 05:59:53;;;;;;;19.27;10.50;;;1.00;99.90;;;;;;5078888;28;20389;-60
2022/01/17 06:02:20;;;;;;;;;;;1.00;99.90;;;;;;5078751;28;20048;-60
2022/01/17 06:04:48;;;;;;;19.92;11.02;;;1.00;99.90;;;;;;5078585;28;19924;-60
2022/01/17 06:07:14;;;;;;;21.83;11.50;;;1.00;99.90;;;;;;5078125;28;20052;-59
2022/01/17 06:09:41;;;;;;;23.38;12.10;;;1.00;99.90;;;;;;5078513;28;20586;-60
2022/01/17 06:12:08;;;;;;;;;;;1.00;99.90;;;;;;5077865;28;20630;-60
2022/01/17 06:14:35;;;;;;;25.65;12.02;;;1.00;99.90;;;;;;5077462;28;19924;-59
2022/01/17 06:17:01;;;;;;;;;;;1.00;99.90;;;;;;5079289;28;20044;-60
2022/01/17 06:19:28;;;;;;;19.58;11.35;;;1.00;99.90;;;;;;5078967;28;19931;-60
2022/01/17 06:21:55;;;;;;;;;;;1.00;99.90;;;;;;5078862;28;20052;-60
2022/01/17 06:24:23;;;;;;;23.15;10.90;;;1.00;99.90;;;;;;5078520;28;20020;-60
2022/01/17 06:26:50;;;;;;;21.90;10.88;;;1.00;99.90;;;;;;5078070;28;20116;-60
2022/01/17 06:29:18;;;;;;;16.77;10.40;;;1.00;99.90;;;;;;5078085;28;20044;-60
2022/01/17 06:31:45;;;;;;;21.17;12.40;;;1.00;99.90;;;;;;5077888;28;20695;-59
2022/01/17 06:34:12;;;;;;;18.83;11.35;;;1.00;99.90;;;;;;5078405;28;20052;-54
2022/01/17 06:36:42;;;;;;;22.70;13.20;;;0.90;99.90;;;;;;5078158;28;20090;-54
2022/01/17 06:39:10;;;;;;;21.15;11.75;;;1.00;99.90;;;;;;5078039;28;20036;-54
2022/01/17 06:41:39;;;;;;;17.75;11.68;;;0.90;99.90;;;;;;5078113;28;20044;-54
2022/01/17 06:44:06;;;;;;;18.58;10.73;;;1.00;99.90;;;;;;5078142;28;20506;-54
2022/01/17 06:46:34;;;;;;;24.08;12.77;;;1.00;99.90;;;;;;5078151;28;20505;-53
2022/01/17 06:49:01;;;;;;;19.63;9.88;;;1.00;99.90;;;;;;5076972;28;20226;-54
2022/01/17 06:51:28;;;;;;;19.13;11.63;;;1.00;99.90;;;;;;5078170;28;20503;-54
2022/01/17 06:53:55;;;;;;;;;;;1.00;99.90;;;;;;5078609;28;20308;-55
2022/01/17 06:56:22;;;;;;;21.42;10.70;;;1.00;99.90;;;;;;5077893;28;19977;-54
2022/01/17 06:58:49;;;;;;;22.90;11.35;;;1.10;99.90;;;;;;5077657;28;20097;-53
2022/01/17 07:01:21;;;;;;;18.92;10.48;;;1.10;99.90;;;;;;5077945;28;20515;-55
2022/01/17 07:03:50;;;;;;;16.85;9.73;;;1.10;99.90;;;;;;5077501;28;20498;-54
2022/01/17 07:06:18;;;;;;;17.85;10.32;;;1.10;99.90;;;;;;5076302;28;20048;-49
2022/01/17 07:08:45;;;;;;;17.17;10.13;;;1.10;99.90;;;;;;5076143;28;20048;-49
2022/01/17 07:11:13;;;;;;;14.75;8.75;;;1.10;99.90;;;;;;5076757;28;20474;-49
2022/01/17 07:13:40;;;;;;;18.05;9.05;;;1.10;99.90;;;;;;5076314;28;20097;-53
2022/01/17 07:16:06;;;;;;;24.23;11.10;;;1.10;99.90;;;;;;5075968;28;20052;-54
2022/01/17 07:18:33;;;;;;;20.52;10.15;;;1.10;99.90;;;;;;5076803;28;20047;-55
2022/01/17 07:21:00;;;;;;;25.63;11.40;;;1.10;99.90;;;;;;5077493;28;20098;-45
2022/01/17 07:23:27;;;;;;;18.95;10.30;;;1.10;99.90;;;;;;5077031;28;20056;-55
2022/01/17 07:25:54;;;;;;;18.00;10.52;;;1.10;99.90;;;;;;5076694;28;20097;-52
2022/01/17 07:28:25;;;;;;;24.42;10.27;;;1.20;99.90;;;;;;5076870;28;20048;-53
2022/01/17 07:30:52;;;;;;;22.42;9.55;;;1.20;99.90;;;;;;5076647;28;20494;-53
2022/01/17 07:33:21;;;;;;;;;;;1.30;99.90;;;;;;5076766;28;20044;-53
2022/01/17 07:35:48;;;;;;;17.55;8.30;;;1.40;99.90;;;;;;5077466;28;20455;-54
2022/01/17 07:38:16;;;;;;;14.73;8.45;;;1.50;99.90;;;;;;5076387;28;20827;-55
2022/01/17 07:40:43;;;;;;;18.92;9.52;;;1.50;99.90;;;;;;5075268;28;20044;-53
2022/01/17 07:43:11;;;;;;;18.15;9.10;;;1.50;99.90;;;;;;5076495;28;20097;-52
2022/01/17 07:45:46;;;;;;;16.83;9.55;;;1.50;99.90;;;;;;5076224;28;20032;-53
2022/01/17 07:50:58;;;;;;;18.23;9.15;;;1.50;99.90;;;;;;5074265;28;20051;-53
2022/01/17 07:53:25;;;;;;;18.10;9.90;;;1.50;99.90;;;;;;5076338;28;20406;-51
2022/01/17 07:55:52;;;;;;;19.30;10.00;;;1.50;99.90;;;;;;5076162;28;20490;-53
2022/01/17 07:58:19;;;;;;;18.45;9.10;;;1.50;99.90;;;;;;5076392;28;20489;-54
2022/01/17 08:00:45;;;;;;;;;;;1.50;99.90;;;;;;5076178;28;20040;-54
2022/01/17 08:03:12;;;;;;;11.90;8.10;;;1.50;99.90;;;;;;5075718;28;20205;-52
2022/01/17 08:05:39;;;;;;;;;;;1.50;99.90;;;;;;5077222;28;20372;-53
2022/01/17 08:08:05;;;;;;;15.75;8.18;;;1.60;99.90;;;;;;5076296;28;19924;-54
2022/01/17 08:10:33;;;;;;;;;;;1.50;99.90;;;;;;5076558;28;20414;-53
2022/01/17 08:13:00;;;;;;;14.77;7.78;;;1.50;99.90;;;;;;5075997;28;20409;-55
2022/01/17 08:15:26;;;;;;;;;;;1.60;99.90;;;;;;5075841;28;20048;-53
2022/01/17 08:17:54;;;;;;;13.27;6.90;;;1.60;99.90;;;;;;5080545;28;20310;-55
2022/01/17 08:20:20;;;;;;;18.13;7.88;;;1.60;99.90;;;;;;5080344;28;20040;-54
2022/01/17 08:22:47;;;;;;;;;;;1.60;99.90;;;;;;5080711;28;20105;-54
2022/01/17 08:25:15;;;;;;;11.63;7.68;;;1.70;99.90;;;;;;5080554;28;20024;-55
2022/01/17 08:27:42;;;;;;;17.63;8.52;;;1.70;99.90;;;;;;5079684;28;20052;-55
2022/01/17 08:30:10;;;;;;;11.57;6.72;;;1.80;99.90;;;;;;5080455;28;20436;-55
2022/01/17 08:32:57;;;;;;;8.27;5.10;;;1.80;99.90;;;;;;5078116;28;20090;-53
2022/01/17 08:35:25;;;;;;;14.15;7.30;;;1.80;99.90;;;;;;5079511;28;20136;-53
2022/01/17 08:37:52;;;;;;;18.67;10.52;;;1.90;99.90;;;;;;5078024;28;20044;-53
2022/01/17 08:40:18;;;;;;;;;;;2.00;99.90;;;;;;5080336;28;20150;-54
2022/01/17 08:42:46;;;;;;;15.75;5.93;;;2.00;99.90;;;;;;5078545;28;19931;-54
2022/01/17 08:45:15;;;;;;;12.48;6.78;;;2.00;99.90;;;;;;5079565;28;20071;-54
2022/01/17 08:48:04;;;;;;;17.35;6.95;;;2.10;99.90;;;;;;5080760;28;20051;-53
2022/01/17 08:50:31;;;;;;;9.13;6.65;;;2.20;99.90;;;;;;5078686;28;20494;-55
2022/01/17 08:52:58;;;;;;;;;;;2.10;99.90;;;;;;5080638;28;20129;-54
2022/01/17 08:55:25;;;;;;;11.35;7.22;;;2.20;99.90;;;;;;5080432;28;19938;-54
2022/01/17 08:57:52;;;;;;;8.95;6.60;;;2.20;99.90;;;;;;5079557;28;20129;-53
2022/01/17 09:00:20;;;;;;;12.10;6.90;;;2.20;99.90;;;;;;5079522;28;20759;-54
2022/01/17 09:03:07;;;;;;;;;;;2.30;99.90;;;;;;5080447;28;20123;-55
2022/01/17 09:05:35;;;;;;;10.10;6.65;;;2.30;99.90;;;;;;5079919;28;20499;-54
2022/01/17 09:08:03;;;;;;;9.30;5.03;;;2.30;99.90;;;;;;5079400;28;20490;-54
2022/01/17 09:10:31;;;;;;;9.02;5.50;;;2.30;99.90;;;;;;5079774;28;20052;-54
2022/01/17 09:12:58;;;;;;;9.18;5.82;;;2.40;99.90;;;;;;5079469;28;20052;-54
2022/01/17 09:15:24;;;;;;;;;;;2.40;99.90;;;;;;5079438;28;20048;-52
2022/01/17 09:17:51;;;;;;;8.30;5.37;;;2.50;99.90;;;;;;5076891;28;19930;-54
2022/01/17 09:20:18;;;;;;;7.30;5.43;;;2.50;99.90;;;;;;5078582;28;20047;-54
2022/01/17 09:22:46;;;;;;;7.07;4.35;;;2.60;99.90;;;;;;5078682;28;20047;-54
2022/01/17 09:25:12;;;;;;;6.78;4.47;;;2.70;99.90;;;;;;5079181;28;20048;-54
2022/01/17 09:27:42;;;;;;;9.23;6.22;;;2.80;99.90;;;;;;5079070;28;20047;-54
2022/01/17 09:30:12;;;;;;;7.07;4.28;;;2.90;99.90;;;;;;5079692;28;20059;-54
2022/01/17 09:32:40;;;;;;;6.85;4.45;;;3.00;99.90;;;;;;5079523;28;20093;-54
2022/01/17 09:35:08;;;;;;;7.35;4.18;;;3.20;99.90;;;;;;5078374;28;20097;-54
2022/01/17 09:37:35;;;;;;;8.27;5.53;;;3.40;99.90;;;;;;5078296;28;20105;-54
2022/01/17 09:40:04;;;;;;;6.32;4.07;;;3.70;99.90;;;;;;5079061;28;20032;-54
2022/01/17 09:42:35;;;;;;;7.18;4.30;;;3.90;99.90;;;;;;5079273;28;20097;-54
2022/01/17 09:45:14;;;;;;;4.72;3.30;;;4.20;99.90;;;;;;5079291;28;20040;-54
2022/01/17 09:47:43;;;;;;;7.07;3.50;;;4.40;99.90;;;;;;5079250;28;20036;-54
2022/01/17 09:50:16;;;;;;;5.35;3.30;;;4.60;99.90;;;;;;5078858;28;20044;-54
2022/01/17 09:52:47;;;;;;;5.40;3.35;;;4.80;99.90;;;;;;5078026;28;20051;-54
2022/01/17 09:55:22;;;;;;;6.60;3.28;;;4.90;99.90;;;;;;5080000;28;20513;-55
2022/01/17 09:57:52;;;;;;;6.55;3.10;;;5.00;99.90;;;;;;5077958;28;20040;-54
2022/01/17 10:00:26;;;;;;;7.82;3.30;;;5.10;99.90;;;;;;5078762;28;20043;-53
2022/01/17 10:02:57;;;;;;;5.32;3.53;;;5.20;99.90;;;;;;5078333;28;20557;-55
2022/01/17 10:05:26;;;;;;;4.25;2.85;;;5.30;99.90;;;;;;5078751;28;20118;-55
2022/01/17 10:08:08;;;;;;;4.70;2.65;;;5.30;99.90;;;;;;5077938;28;20800;-55
2022/01/17 10:10:56;;;;;;;5.35;2.55;;;5.30;99.90;;;;;;5078118;28;20047;-55
2022/01/17 10:13:26;;;;;;;1.92;1.60;;;5.30;99.90;;;;;;5078136;28;20645;-53
2022/01/17 10:16:06;;;;;;;3.25;2.50;;;5.20;99.90;;;;;;5077463;28;20105;-53
2022/01/17 10:18:39;;;;;;;3.60;2.58;;;5.20;99.90;;;;;;5076492;28;20036;-54
2022/01/17 10:21:31;;;;;;;5.10;2.75;;;5.20;99.90;;;;;;5056579;28;20056;-54
2022/01/17 10:35:15;;;;;;;3.28;2.10;;;4.70;99.90;;;;;;4997902;28;21299;-52
2022/01/17 10:38:04;;;;;;;3.28;2.38;;;4.70;99.90;;;;;;5065204;28;20528;-53
2022/01/17 10:40:43;;;;;;;6.03;2.50;;;4.90;99.90;;;;;;5076242;28;20040;-56
2022/01/17 10:43:39;;;;;;;2.67;2.03;;;5.40;99.90;;;;;;5077621;28;20052;-57
2022/01/17 10:46:11;;;;;;;3.17;2.20;;;6.00;99.90;;;;;;5076934;28;20048;-57
2022/01/17 10:48:42;;;;;;;5.18;2.00;;;6.50;99.90;;;;;;5078573;28;20040;-57
2022/01/17 10:51:11;;;;;;;3.63;2.67;;;6.90;99.90;;;;;;5078839;28;20048;-56
2022/01/17 10:53:40;;;;;;;5.97;2.67;;;7.10;99.90;;;;;;5077116;28;20109;-57
2022/01/17 10:56:12;;;;;;;3.67;2.38;;;7.20;99.90;;;;;;5078934;28;20055;-56
2022/01/17 10:58:40;;;;;;;4.18;2.72;;;7.30;99.90;;;;;;5078252;28;20296;-57
2022/01/17 11:01:13;;;;;;;6.22;4.05;;;7.30;99.90;;;;;;5078581;28;20040;-57
2022/01/17 11:03:42;;;;;;;6.10;3.85;;;7.20;99.90;;;;;;5078481;28;20043;-56
2022/01/17 11:06:13;;;;;;;8.93;6.10;;;7.10;99.90;;;;;;5078811;28;20046;-57
2022/01/17 11:08:41;;;;;;;16.05;9.30;;;7.00;99.90;;;;;;5077923;28;20532;-57
2022/01/17 11:11:09;;;;;;;16.13;10.75;;;6.90;99.90;;;;;;5077578;28;20101;-56
2022/01/17 11:13:38;;;;;;;21.30;13.43;;;6.80;99.90;;;;;;5077476;28;20125;-57
2022/01/17 11:16:18;;;;;;;25.63;15.27;;;6.70;99.90;;;;;;5076902;28;20051;-57
2022/01/17 11:18:57;;;;;;;24.58;14.95;;;6.40;99.90;;;;;;5074745;28;20264;-56
2022/01/17 11:21:25;;;;;;;25.17;15.77;;;6.20;99.90;;;;;;5076988;28;20040;-56
2022/01/17 11:23:53;;;;;;;24.80;15.48;;;6.00;99.90;;;;;;5077067;28;20134;-56
2022/01/17 11:26:19;;;;;;;28.77;16.95;;;5.90;99.90;;;;;;5074898;28;20093;-56
2022/01/17 11:28:49;;;;;;;28.00;17.10;;;5.80;99.90;;;;;;5076497;28;20047;-56
2022/01/17 11:31:16;;;;;;;24.00;15.07;;;5.70;99.90;;;;;;5076799;28;20078;-56
2022/01/17 11:33:47;;;;;;;25.70;15.88;;;5.60;99.90;;;;;;5077024;28;20044;-56
2022/01/17 11:36:17;;;;;;;27.20;17.02;;;5.50;99.90;;;;;;5076556;28;20441;-56
2022/01/17 11:38:50;;;;;;;23.05;15.63;;;5.40;99.90;;;;;;5076271;28;20044;-56
2022/01/17 11:41:24;;;;;;;28.10;16.55;;;5.40;99.90;;;;;;5076343;28;20043;-56
2022/01/17 11:43:57;;;;;;;23.70;14.68;;;5.40;99.90;;;;;;5077415;28;20048;-55
2022/01/17 11:46:27;;;;;;;27.27;15.50;;;5.30;99.90;;;;;;5077818;28;20105;-56
2022/01/17 11:49:07;;;;;;;27.95;17.30;;;5.30;99.90;;;;;;5076212;28;20073;-56
2022/01/17 11:51:46;;;;;;;26.30;16.02;;;5.20;99.90;;;;;;5071040;28;20509;-56
2022/01/17 11:54:25;;;;;;;26.17;16.50;;;5.20;99.90;;;;;;5069290;28;20048;-56
2022/01/17 11:56:56;;;;;;;32.13;18.83;;;5.20;99.90;;;;;;5077011;28;20120;-56
2022/01/17 11:59:28;;;;;;;30.15;16.42;;;5.30;99.90;;;;;;5076422;28;20047;-56
2022/01/17 12:02:10;;;;;;;25.77;14.75;;;5.40;99.90;;;;;;5074975;28;20044;-56
2022/01/17 12:04:37;;;;;;;21.90;14.65;;;5.50;99.90;;;;;;5076392;28;20032;-56
2022/01/17 12:07:04;;;;;;;;;;;5.60;99.90;;;;;;5076216;28;20043;-56
2022/01/17 12:09:31;;;;;;;24.88;14.52;;;5.60;99.90;;;;;;5076762;28;19920;-56
2022/01/17 12:12:07;;;;;;;28.17;15.95;;;5.70;99.90;;;;;;5075971;28;20056;-56
2022/01/17 12:14:41;;;;;;;26.55;16.05;;;5.80;99.90;;;;;;5075361;28;20101;-56
2022/01/17 12:17:20;;;;;;;29.85;17.13;;;5.80;99.90;;;;;;5074962;28;20570;-56
2022/01/17 12:20:09;;;;;;;29.35;15.45;;;5.80;99.90;;;;;;5073849;28;20035;-56
2022/01/17 12:22:39;;;;;;;22.73;13.10;;;6.00;99.90;;;;;;5075270;28;20040;-56
2022/01/17 12:25:21;;;;;;;23.92;13.40;;;6.20;99.90;;;;;;5076037;28;20468;-56
2022/01/17 12:27:49;;;;;;;15.93;9.48;;;6.40;99.90;;;;;;5075386;28;20097;-57
2022/01/17 12:30:17;;;;;;;15.60;8.13;;;6.60;99.90;;;;;;5075555;28;20044;-57
2022/01/17 12:32:50;;;;;;;18.63;9.25;;;6.80;99.90;;;;;;5075918;28;20048;-57
2022/01/17 12:35:23;;;;;;;14.75;9.65;;;6.90;99.90;;;;;;5075717;28;20446;-58
2022/01/17 12:38:03;;;;;;;13.27;8.98;;;6.90;99.90;;;;;;5075711;28;20132;-59
2022/01/17 12:40:50;;;;;;;17.25;8.98;;;7.00;99.90;;;;;;5075557;28;20067;-58
2022/01/17 12:43:17;;;;;;;;;;;7.00;99.90;;;;;;5076288;28;20052;-58
2022/01/17 12:45:54;;;;;;;15.40;9.68;;;7.00;99.90;;;;;;5076643;28;19924;-58
2022/01/17 12:48:24;;;;;;;16.55;9.77;;;6.90;99.90;;;;;;5075894;28;20044;-58
2022/01/17 12:50:52;;;;;;;17.02;10.63;;;6.80;99.90;;;;;;5075048;28;20399;-58
2022/01/17 12:53:22;;;;;;;18.98;11.88;;;6.70;99.90;;;;;;5075853;28;20051;-58
2022/01/17 12:55:52;;;;;;;17.10;10.73;;;6.70;99.90;;;;;;5075461;28;20126;-58
2022/01/17 12:58:32;;;;;;;20.65;12.23;;;6.80;99.90;;;;;;5075781;28;20066;-57
2022/01/17 13:01:05;;;;;;;23.38;13.68;;;6.90;99.90;;;;;;5077451;28;20048;-58
2022/01/17 13:03:35;;;;;;;19.52;11.98;;;6.80;99.90;;;;;;5079517;28;20036;-57
2022/01/17 13:06:08;;;;;;;20.52;11.88;;;6.80;99.90;;;;;;5079472;28;20045;-58
2022/01/17 13:08:39;;;;;;;23.02;12.23;;;6.90;99.90;;;;;;5078988;28;20325;-57
2022/01/17 13:11:14;;;;;;;17.92;11.57;;;6.90;99.90;;;;;;5076942;28;20040;-61
2022/01/17 13:13:59;;;;;;;18.27;11.45;;;7.00;99.90;;;;;;5064448;28;20040;-57
2022/01/17 13:16:28;;;;;;;18.30;10.95;;;7.10;99.90;;;;;;5069156;28;20565;-58
2022/01/17 13:18:56;;;;;;;18.70;10.70;;;7.10;99.90;;;;;;5078091;28;20044;-58
2022/01/17 13:21:23;;;;;;;19.75;11.55;;;7.10;99.90;;;;;;5076018;28;20510;-57
2022/01/17 13:23:56;;;;;;;19.98;11.00;;;7.20;99.90;;;;;;5079441;28;20105;-56
2022/01/17 13:26:35;;;;;;;19.35;10.98;;;7.00;99.90;;;;;;5078571;28;20040;-57
2022/01/17 13:29:09;;;;;;;17.05;10.15;;;6.90;99.90;;;;;;5058699;28;20068;-58
2022/01/17 13:31:37;;;;;;;18.95;10.98;;;6.80;99.90;;;;;;5073329;28;20102;-57
2022/01/17 13:34:24;;;;;;;19.15;11.65;;;6.70;99.90;;;;;;5058962;28;20269;-57
2022/01/17 13:36:53;;;;;;;21.05;11.82;;;6.60;99.90;;;;;;5074553;28;20048;-55
2022/01/17 13:39:41;;;;;;;19.58;12.63;;;6.50;99.90;;;;;;5077828;28;20072;-58